Time;durP1;ratioP1;P1;durP2;ratioP2;P2;SDS_P1;SDS_P2;PMS_P1;PMS_P2;Temp;Humidity;BMP_temperature;BMP_pressure;BME280_temperature;BME280_humidity;BME280_pressure;Samples;Min_cycle;Max_cycle;Signal;HPM_P1;HPM_P2
2023/04/30 00:02:18;;;;;;;10.23;9.23;;;7.50;99.90;;;;;;5027707;28;20045;-73
2023/04/30 00:04:44;;;;;;;11.07;9.98;;;7.40;99.90;;;;;;5022482;28;21571;-73
2023/04/30 00:07:09;;;;;;;10.30;9.20;;;7.30;99.90;;;;;;5007600;28;20125;-73
2023/04/30 00:09:35;;;;;;;10.02;9.02;;;7.30;99.90;;;;;;5029042;28;20068;-73
2023/04/30 00:12:00;;;;;;;11.00;8.95;;;7.20;99.90;;;;;;5013751;28;20034;-73
2023/04/30 00:14:26;;;;;;;10.65;9.55;;;7.20;99.90;;;;;;5029666;28;20034;-73
2023/04/30 00:16:52;;;;;;;9.80;8.90;;;7.10;99.90;;;;;;5025963;28;20498;-73
2023/04/30 00:19:17;;;;;;;10.13;8.70;;;7.00;99.90;;;;;;5032657;28;20481;-73
2023/04/30 00:21:43;;;;;;;10.75;8.88;;;7.00;99.90;;;;;;5034031;28;20056;-73
2023/04/30 00:24:08;;;;;;;10.98;9.88;;;6.90;99.90;;;;;;5031952;28;20037;-73
2023/04/30 00:26:34;;;;;;;12.23;10.05;;;6.80;99.90;;;;;;5020101;28;20132;-73
2023/04/30 00:28:59;;;;;;;13.63;10.98;;;6.70;99.90;;;;;;5028214;28;20751;-73
2023/04/30 00:31:25;;;;;;;11.13;9.95;;;6.70;99.90;;;;;;5025556;28;20033;-73
2023/04/30 00:33:50;;;;;;;11.85;10.35;;;6.70;99.90;;;;;;5032695;28;20409;-73
2023/04/30 00:36:16;;;;;;;11.82;10.02;;;6.60;99.90;;;;;;5025440;28;20029;-73
2023/04/30 00:38:42;;;;;;;11.90;10.70;;;6.50;99.90;;;;;;5023602;28;20527;-73
2023/04/30 00:41:07;;;;;;;14.52;12.82;;;6.40;99.90;;;;;;5016943;28;20042;-73
2023/04/30 00:43:33;;;;;;;12.43;11.20;;;6.40;99.90;;;;;;5013955;28;20037;-73
2023/04/30 00:45:59;;;;;;;13.02;11.70;;;6.40;99.90;;;;;;5013867;28;20498;-73
2023/04/30 00:48:25;;;;;;;13.93;12.13;;;6.40;99.90;;;;;;5026372;28;20435;-73
2023/04/30 00:50:50;;;;;;;13.70;12.40;;;6.30;99.90;;;;;;5026922;28;20042;-73
2023/04/30 00:53:16;;;;;;;13.60;12.20;;;6.20;99.90;;;;;;5031491;28;20048;-73
2023/04/30 00:55:43;;;;;;;15.95;12.95;;;6.20;99.90;;;;;;5008562;28;20072;-73
2023/04/30 00:58:09;;;;;;;14.75;13.20;;;6.20;99.90;;;;;;5020505;28;20034;-73
2023/04/30 01:00:35;;;;;;;15.82;13.45;;;6.20;99.90;;;;;;5026155;28;20116;-73
2023/04/30 01:03:01;;;;;;;13.38;11.65;;;6.20;99.90;;;;;;5033344;28;20124;-73
2023/04/30 01:05:26;;;;;;;16.00;14.05;;;6.20;99.90;;;;;;5031527;28;20554;-73
2023/04/30 01:07:54;;;;;;;13.55;12.25;;;6.20;99.90;;;;;;5026300;28;20041;-73
2023/04/30 01:10:24;;;;;;;12.90;11.60;;;6.10;99.90;;;;;;5024920;28;20535;-73
2023/04/30 01:13:05;;;;;;;15.93;13.48;;;6.10;99.90;;;;;;5031759;28;20489;-73
2023/04/30 01:16:07;;;;;;;14.70;12.40;;;6.00;99.90;;;;;;5020854;28;20033;-73
2023/04/30 01:18:49;;;;;;;15.15;13.65;;;5.90;99.90;;;;;;5000038;28;20030;-73
2023/04/30 01:21:17;;;;;;;15.93;13.77;;;5.90;99.90;;;;;;5033050;28;20053;-73
2023/04/30 01:24:02;;;;;;;14.68;12.75;;;5.80;99.90;;;;;;5025497;28;20042;-73
2023/04/30 01:26:55;;;;;;;15.85;14.25;;;5.80;99.90;;;;;;5023381;28;20044;-73
2023/04/30 01:29:23;;;;;;;15.48;13.82;;;5.70;99.90;;;;;;5026066;28;20042;-73
2023/04/30 01:31:49;;;;;;;17.92;15.77;;;5.70;99.90;;;;;;5031233;28;20091;-73
2023/04/30 01:34:15;;;;;;;16.48;14.95;;;5.60;99.90;;;;;;5006966;28;20049;-73
2023/04/30 01:37:28;;;;;;;16.75;15.20;;;5.60;99.90;;;;;;5026083;28;20038;-73
2023/04/30 01:40:08;;;;;;;16.58;14.75;;;5.50;99.90;;;;;;4982587;28;20132;-73
2023/04/30 01:43:00;;;;;;;15.63;14.23;;;5.50;99.90;;;;;;5020691;28;20042;-73
2023/04/30 01:45:54;;;;;;;14.60;13.30;;;5.40;99.90;;;;;;5043387;28;20439;-73
2023/04/30 01:48:45;;;;;;;15.20;13.60;;;5.30;99.90;;;;;;5031076;28;20041;-73
2023/04/30 01:51:27;;;;;;;14.63;13.13;;;5.30;99.90;;;;;;5019962;28;20041;-73
2023/04/30 01:53:56;;;;;;;15.70;14.10;;;5.20;99.90;;;;;;5012741;28;20042;-73
2023/04/30 01:56:30;;;;;;;15.82;14.30;;;5.10;99.90;;;;;;5024127;28;20505;-73
2023/04/30 01:58:56;;;;;;;17.48;15.65;;;5.10;99.90;;;;;;5013740;28;20030;-73
2023/04/30 02:01:27;;;;;;;17.95;16.02;;;5.00;99.90;;;;;;5029050;28;20424;-73
2023/04/30 02:03:52;;;;;;;16.77;15.10;;;5.00;99.90;;;;;;5006228;28;20068;-73
2023/04/30 02:06:18;;;;;;;18.90;16.27;;;5.00;99.90;;;;;;5023810;28;20045;-73
2023/04/30 02:08:43;;;;;;;17.05;15.32;;;4.90;99.90;;;;;;5032270;28;20048;-73
2023/04/30 02:11:09;;;;;;;18.40;16.70;;;4.90;99.90;;;;;;5032295;28;20478;-73
2023/04/30 02:13:35;;;;;;;22.50;20.10;;;4.90;99.90;;;;;;5014002;28;20045;-73
2023/04/30 02:16:00;;;;;;;18.50;16.65;;;4.80;99.90;;;;;;5028108;28;20037;-73
2023/04/30 02:18:26;;;;;;;18.63;16.70;;;4.80;99.90;;;;;;5004398;28;20041;-73
2023/04/30 02:20:51;;;;;;;16.77;15.10;;;4.80;99.90;;;;;;5020160;28;20037;-73
2023/04/30 02:23:17;;;;;;;17.85;16.15;;;4.70;99.90;;;;;;5011698;28;20037;-73
2023/04/30 02:25:43;;;;;;;17.08;15.32;;;4.70;99.90;;;;;;5030825;28;20040;-73
2023/04/30 02:28:09;;;;;;;18.08;15.32;;;4.70;99.90;;;;;;5020127;28;20041;-73
2023/04/30 02:30:34;;;;;;;16.17;14.55;;;4.60;99.90;;;;;;5022631;28;20047;-73
2023/04/30 02:33:01;;;;;;;16.15;14.68;;;4.60;99.90;;;;;;5023137;28;20033;-73
2023/04/30 02:35:26;;;;;;;15.75;14.10;;;4.60;99.90;;;;;;5021254;28;20044;-73
2023/04/30 02:37:52;;;;;;;18.40;16.58;;;4.50;99.90;;;;;;5030576;28;20037;-73
2023/04/30 02:40:17;;;;;;;20.02;17.92;;;4.50;99.90;;;;;;5022902;28;20288;-73
2023/04/30 02:42:43;;;;;;;19.85;18.05;;;4.40;99.90;;;;;;5026349;28;20048;-73
2023/04/30 02:45:08;;;;;;;17.85;16.05;;;4.40;99.90;;;;;;5022309;28;20041;-73
2023/04/30 02:47:34;;;;;;;18.17;16.42;;;4.40;99.90;;;;;;5030676;28;20045;-73
2023/04/30 02:50:00;;;;;;;19.10;17.15;;;4.40;99.90;;;;;;5019062;28;20030;-73
2023/04/30 02:52:25;;;;;;;17.98;16.27;;;4.30;99.90;;;;;;5022154;28;20045;-73
2023/04/30 02:54:51;;;;;;;29.17;23.80;;;4.30;99.90;;;;;;5030377;28;20029;-73
2023/04/30 02:57:16;;;;;;;16.67;15.27;;;4.30;99.90;;;;;;5027635;28;20065;-73
2023/04/30 02:59:44;;;;;;;16.67;15.13;;;4.20;99.90;;;;;;5023733;28;20457;-73
2023/04/30 03:02:10;;;;;;;23.13;20.83;;;4.20;99.90;;;;;;5022714;28;20507;-73
2023/04/30 03:04:35;;;;;;;105.60;27.92;;;4.10;99.90;;;;;;5014430;28;20073;-73
2023/04/30 03:07:02;;;;;;;21.17;19.02;;;4.10;99.90;;;;;;5005618;28;20472;-73
2023/04/30 03:09:31;;;;;;;22.95;20.95;;;4.10;99.90;;;;;;5011943;28;20042;-73
2023/04/30 03:11:56;;;;;;;29.90;27.17;;;4.00;99.90;;;;;;5021841;28;20117;-73
2023/04/30 03:14:22;;;;;;;27.88;25.45;;;4.00;99.90;;;;;;5021155;28;20141;-73
2023/04/30 03:16:48;;;;;;;33.75;30.73;;;4.00;99.90;;;;;;5029383;28;20037;-73
2023/04/30 03:19:13;;;;;;;27.08;24.73;;;4.00;99.90;;;;;;5022526;28;20103;-73
2023/04/30 03:21:39;;;;;;;25.00;22.70;;;3.90;99.90;;;;;;5024642;28;20080;-73
2023/04/30 03:24:05;;;;;;;25.98;23.58;;;3.90;99.90;;;;;;5018860;28;20493;-73
2023/04/30 03:26:31;;;;;;;26.83;23.27;;;3.80;99.90;;;;;;5026696;28;20042;-73
2023/04/30 03:28:56;;;;;;;24.75;22.60;;;3.80;99.90;;;;;;5019296;28;20485;-73
2023/04/30 03:31:22;;;;;;;35.92;32.53;;;3.80;99.90;;;;;;5011481;28;20038;-73
2023/04/30 03:33:48;;;;;;;43.33;39.28;;;3.80;99.90;;;;;;5021495;28;20084;-73
2023/04/30 03:36:13;;;;;;;44.13;40.13;;;3.80;99.90;;;;;;5021100;28;20124;-73
2023/04/30 03:38:40;;;;;;;38.35;35.13;;;3.80;99.90;;;;;;5015207;28;20038;-73
2023/04/30 03:41:06;;;;;;;30.55;27.95;;;3.70;99.90;;;;;;5018930;28;20039;-73
2023/04/30 03:43:32;;;;;;;34.30;31.23;;;3.70;99.90;;;;;;5013581;28;20046;-73
2023/04/30 03:45:57;;;;;;;30.10;27.50;;;3.70;99.90;;;;;;5024794;28;20060;-73
2023/04/30 03:48:23;;;;;;;29.55;26.85;;;3.70;99.90;;;;;;5013894;28;20045;-73
2023/04/30 03:50:48;;;;;;;27.45;25.05;;;3.70;99.90;;;;;;5014026;28;20060;-72
2023/04/30 03:53:14;;;;;;;26.38;23.92;;;3.70;99.90;;;;;;5030109;28;20042;-73
2023/04/30 03:55:40;;;;;;;26.25;23.98;;;3.60;99.90;;;;;;5028992;28;20389;-73
2023/04/30 03:58:06;;;;;;;26.50;24.13;;;3.60;99.90;;;;;;5021959;28;20030;-73
2023/04/30 04:00:32;;;;;;;31.98;28.63;;;3.50;99.90;;;;;;5025812;28;20026;-73
2023/04/30 04:02:58;;;;;;;33.40;30.10;;;3.50;99.90;;;;;;5009279;28;20087;-73
2023/04/30 04:05:23;;;;;;;34.38;31.23;;;3.50;99.90;;;;;;5030127;28;20127;-73
2023/04/30 04:07:49;;;;;;;31.90;28.92;;;3.50;99.90;;;;;;5021138;28;20033;-73
2023/04/30 04:10:15;;;;;;;33.13;29.98;;;3.50;99.90;;;;;;5005797;28;20045;-73
2023/04/30 04:12:40;;;;;;;32.55;29.55;;;3.50;99.90;;;;;;5024268;28;20042;-73
2023/04/30 04:15:07;;;;;;;32.33;29.33;;;3.50;99.90;;;;;;5026621;28;20041;-73
2023/04/30 04:17:32;;;;;;;33.35;30.10;;;3.50;99.90;;;;;;5020085;28;20114;-73
2023/04/30 04:19:58;;;;;;;26.02;23.70;;;3.50;99.90;;;;;;5014756;28;20121;-73
2023/04/30 04:22:23;;;;;;;28.30;25.83;;;3.50;99.90;;;;;;5010555;28;20045;-73
2023/04/30 04:24:50;;;;;;;34.08;30.70;;;3.50;99.90;;;;;;5010812;28;20038;-73
2023/04/30 04:27:15;;;;;;;31.73;28.80;;;3.40;99.90;;;;;;5018757;28;20069;-72
2023/04/30 04:29:41;;;;;;;30.45;27.60;;;3.40;99.90;;;;;;5023462;28;20490;-73
2023/04/30 04:32:06;;;;;;;33.45;30.25;;;3.40;99.90;;;;;;5030061;28;20513;-73
2023/04/30 04:34:32;;;;;;;33.85;29.60;;;3.40;99.90;;;;;;5029098;28;20481;-73
2023/04/30 04:36:58;;;;;;;33.78;30.13;;;3.60;99.90;;;;;;5027230;28;20389;-73
2023/04/30 04:39:23;;;;;;;33.65;30.23;;;3.70;99.90;;;;;;5023704;28;20095;-73
2023/04/30 04:41:49;;;;;;;35.17;31.45;;;3.80;99.90;;;;;;5022266;28;20088;-73
2023/04/30 04:44:15;;;;;;;31.70;28.30;;;3.90;99.90;;;;;;5026753;28;20049;-73
2023/04/30 04:46:43;;;;;;;31.48;28.13;;;3.90;99.90;;;;;;5028188;28;20080;-73
2023/04/30 04:49:08;;;;;;;24.52;22.15;;;4.00;99.90;;;;;;5021672;28;20048;-73
2023/04/30 04:51:34;;;;;;;28.83;26.00;;;4.10;99.90;;;;;;5025392;28;20042;-73
2023/04/30 04:54:00;;;;;;;32.35;26.52;;;4.20;99.90;;;;;;5028237;28;20073;-73
2023/04/30 04:56:25;;;;;;;28.27;24.08;;;4.20;99.90;;;;;;5024512;28;20068;-73
2023/04/30 04:58:51;;;;;;;29.20;26.15;;;4.20;99.90;;;;;;5007864;28;20038;-73
2023/04/30 05:01:17;;;;;;;27.73;24.75;;;4.20;99.90;;;;;;5008866;28;20060;-73
2023/04/30 05:03:42;;;;;;;25.63;23.17;;;4.20;99.90;;;;;;5027239;28;20069;-73
2023/04/30 05:06:08;;;;;;;25.85;23.05;;;4.20;99.90;;;;;;5021123;28;20033;-73
2023/04/30 05:08:34;;;;;;;26.25;23.50;;;4.20;99.90;;;;;;5025094;28;20501;-73
2023/04/30 05:10:59;;;;;;;24.33;21.85;;;4.20;99.90;;;;;;5032753;28;20044;-73
2023/04/30 05:13:25;;;;;;;25.15;22.63;;;4.20;99.90;;;;;;5010719;28;20030;-73
2023/04/30 05:15:52;;;;;;;25.73;23.13;;;4.20;99.90;;;;;;5004434;28;20087;-73
2023/04/30 05:18:17;;;;;;;26.48;23.70;;;4.20;99.90;;;;;;5023068;28;20041;-73
2023/04/30 05:20:43;;;;;;;25.85;22.90;;;4.30;99.90;;;;;;5033329;28;20033;-73
2023/04/30 05:23:09;;;;;;;24.30;21.88;;;4.30;99.90;;;;;;5024367;28;20124;-73
2023/04/30 05:25:35;;;;;;;20.88;18.90;;;4.40;99.90;;;;;;5024641;28;20484;-73
2023/04/30 05:28:02;;;;;;;21.52;19.30;;;4.40;99.90;;;;;;5024119;28;20046;-73
2023/04/30 05:30:27;;;;;;;26.05;23.30;;;4.40;99.90;;;;;;5032764;28;20497;-73
2023/04/30 05:32:53;;;;;;;25.02;22.40;;;4.40;99.90;;;;;;5025286;28;20045;-73
2023/04/30 05:35:19;;;;;;;23.25;20.77;;;4.40;99.90;;;;;;5024435;28;20037;-73
2023/04/30 05:37:45;;;;;;;24.17;21.60;;;4.50;99.90;;;;;;5038482;23;20136;-72
2023/04/30 05:40:11;;;;;;;28.10;23.08;;;4.50;99.90;;;;;;4998246;28;20034;-72
2023/04/30 05:42:39;;;;;;;26.60;21.08;;;4.60;99.90;;;;;;4995366;28;20157;-72
2023/04/30 05:45:06;;;;;;;26.02;23.30;;;4.60;99.90;;;;;;5012265;28;20042;-72
2023/04/30 05:47:31;;;;;;;26.42;23.42;;;4.80;99.90;;;;;;5012526;28;20070;-71
2023/04/30 05:49:57;;;;;;;24.55;19.90;;;4.90;99.90;;;;;;4996631;28;20053;-72
2023/04/30 05:52:23;;;;;;;24.73;22.00;;;5.10;99.90;;;;;;4999747;28;20339;-72
2023/04/30 05:54:49;;;;;;;22.35;20.17;;;5.20;99.90;;;;;;5002985;28;20547;-72
2023/04/30 05:57:15;;;;;;;25.45;20.83;;;5.40;99.90;;;;;;4997123;28;20052;-71
2023/04/30 05:59:40;;;;;;;21.73;19.42;;;5.50;99.90;;;;;;4997517;28;20045;-72
2023/04/30 06:02:06;;;;;;;24.65;20.80;;;5.60;99.90;;;;;;4982186;28;20046;-72
2023/04/30 06:04:31;;;;;;;25.67;23.00;;;5.70;99.90;;;;;;4997126;28;20034;-71
2023/04/30 06:06:57;;;;;;;26.08;23.42;;;5.80;99.90;;;;;;5001449;28;20124;-72
2023/04/30 06:09:23;;;;;;;22.80;19.75;;;5.80;99.90;;;;;;4985394;28;20087;-71
2023/04/30 06:11:50;;;;;;;25.50;19.00;;;5.90;99.90;;;;;;5003713;28;20045;-71
2023/04/30 06:14:17;;;;;;;20.08;16.45;;;5.90;99.90;;;;;;5002049;28;20045;-71
2023/04/30 06:16:44;;;;;;;21.55;16.88;;;6.20;99.90;;;;;;4988647;28;20049;-72
2023/04/30 06:19:12;;;;;;;18.23;11.90;;;6.80;99.90;;;;;;4997630;28;20091;-73
2023/04/30 06:21:37;;;;;;;16.27;12.52;;;7.60;99.90;;;;;;4994133;28;20033;-73
2023/04/30 06:24:03;;;;;;;12.75;11.10;;;8.50;99.90;;;;;;4994848;28;20490;-72
2023/04/30 06:26:29;;;;;;;13.30;10.45;;;8.90;99.90;;;;;;4993199;28;20037;-72
2023/04/30 06:28:55;;;;;;;15.07;11.05;;;9.10;99.90;;;;;;5008617;28;20130;-72
2023/04/30 06:31:24;;;;;;;13.40;10.20;;;9.20;99.90;;;;;;5015133;28;20041;-72
2023/04/30 06:33:50;;;;;;;14.65;9.38;;;9.20;99.90;;;;;;5006237;28;20037;-72
2023/04/30 06:36:15;;;;;;;12.57;9.93;;;9.30;99.90;;;;;;4996696;28;20400;-73
2023/04/30 06:38:45;;;;;;;15.57;10.38;;;9.30;99.90;;;;;;4995093;28;20524;-72
2023/04/30 06:41:11;;;;;;;13.35;10.25;;;9.20;99.90;;;;;;5013066;28;20117;-73
2023/04/30 06:43:37;;;;;;;12.32;8.10;;;9.20;99.90;;;;;;4983925;28;20129;-72
2023/04/30 06:46:03;;;;;;;12.55;8.55;;;9.30;99.90;;;;;;4980180;28;20045;-71
2023/04/30 06:48:28;;;;;;;14.43;8.70;;;9.40;99.90;;;;;;4996666;28;20053;-71
2023/04/30 06:50:54;;;;;;;13.30;6.50;;;9.40;99.90;;;;;;5000285;28;20097;-71
2023/04/30 06:53:20;;;;;;;13.07;7.40;;;9.40;99.90;;;;;;5011327;28;20042;-71
2023/04/30 06:55:46;;;;;;;12.57;7.38;;;9.40;99.90;;;;;;4993787;28;20057;-71
2023/04/30 06:58:11;;;;;;;11.85;5.95;;;9.40;99.90;;;;;;5011920;28;20033;-71
2023/04/30 07:00:37;;;;;;;10.70;5.68;;;9.30;99.90;;;;;;4995430;28;20084;-72
2023/04/30 07:03:03;;;;;;;14.35;5.85;;;9.40;99.90;;;;;;4991242;28;20121;-71
2023/04/30 07:05:32;;;;;;;10.93;5.63;;;9.40;99.90;;;;;;5005141;28;20038;-71
2023/04/30 07:08:02;;;;;;;10.15;4.80;;;9.50;99.90;;;;;;4994502;28;20175;-71
2023/04/30 07:10:28;;;;;;;13.07;6.30;;;9.50;99.90;;;;;;4996098;28;20120;-71
2023/04/30 07:12:54;;;;;;;12.82;5.93;;;9.50;99.90;;;;;;4999319;28;20145;-71
2023/04/30 07:15:20;;;;;;;10.85;5.47;;;9.40;99.90;;;;;;4992447;28;20037;-72
2023/04/30 07:17:45;;;;;;;8.50;4.93;;;9.40;99.90;;;;;;4996880;28;20034;-71
2023/04/30 07:20:13;;;;;;;12.93;5.60;;;9.40;99.90;;;;;;5004600;28;20129;-71
2023/04/30 07:22:39;;;;;;;15.32;5.93;;;9.30;99.90;;;;;;4990393;28;20064;-71
2023/04/30 07:25:05;;;;;;;11.43;6.43;;;9.30;99.90;;;;;;4994237;28;20069;-72
2023/04/30 07:27:31;;;;;;;11.45;6.18;;;9.30;99.90;;;;;;4994037;28;20084;-71
2023/04/30 07:29:56;;;;;;;12.10;5.65;;;9.30;99.90;;;;;;4994437;28;20069;-72
2023/04/30 07:32:25;;;;;;;9.38;4.78;;;9.30;99.90;;;;;;4993899;28;20041;-71
2023/04/30 07:34:52;;;;;;;12.48;6.10;;;9.40;99.90;;;;;;5010419;28;20053;-72
2023/04/30 07:37:21;;;;;;;14.82;6.63;;;9.40;99.90;;;;;;5009617;28;20072;-71
2023/04/30 07:39:46;;;;;;;9.85;5.43;;;9.60;99.90;;;;;;5010757;28;20038;-71
2023/04/30 07:42:12;;;;;;;10.88;5.65;;;9.70;99.90;;;;;;4994571;28;20505;-71
2023/04/30 07:44:37;;;;;;;9.98;5.20;;;9.70;99.90;;;;;;4994530;28;20418;-71
2023/04/30 07:47:04;;;;;;;8.02;4.80;;;9.80;99.90;;;;;;4994444;28;20034;-72
2023/04/30 07:49:29;;;;;;;10.73;5.53;;;9.90;99.90;;;;;;4991169;28;20436;-71
2023/04/30 07:51:55;;;;;;;10.55;5.53;;;9.90;99.90;;;;;;4994480;28;20045;-71
2023/04/30 07:54:21;;;;;;;11.20;5.40;;;10.00;99.90;;;;;;4994090;28;20502;-71
2023/04/30 07:56:47;;;;;;;12.05;5.45;;;10.10;99.90;;;;;;4994017;28;20521;-71
2023/04/30 07:59:13;;;;;;;11.18;6.00;;;10.10;99.90;;;;;;4993993;28;20041;-71
2023/04/30 08:01:39;;;;;;;12.40;5.63;;;10.20;99.90;;;;;;5010538;28;20084;-71
2023/04/30 08:04:05;;;;;;;13.85;5.80;;;10.30;99.90;;;;;;4994008;28;20045;-71
2023/04/30 08:06:31;;;;;;;10.82;5.88;;;10.40;99.90;;;;;;4994268;28;20050;-71
2023/04/30 08:08:56;;;;;;;11.85;5.43;;;10.60;99.90;;;;;;4994389;28;20038;-72
2023/04/30 08:11:22;;;;;;;9.27;5.97;;;10.60;99.90;;;;;;4994274;28;20280;-71
2023/04/30 08:13:47;;;;;;;12.65;7.32;;;10.80;99.90;;;;;;4977149;28;20092;-72
2023/04/30 08:16:13;;;;;;;12.68;6.90;;;11.00;99.90;;;;;;4994059;28;20045;-72
2023/04/30 08:18:42;;;;;;;10.45;5.45;;;11.20;99.90;;;;;;4993923;28;20034;-72
2023/04/30 08:21:08;;;;;;;13.52;5.15;;;11.60;99.90;;;;;;4994350;28;20060;-72
2023/04/30 08:23:34;;;;;;;7.57;4.05;;;12.40;99.90;;;;;;4994396;28;20494;-72
2023/04/30 08:25:59;;;;;;;10.68;4.40;;;13.00;99.90;;;;;;4990505;28;20518;-72
2023/04/30 08:28:25;;;;;;;11.32;4.90;;;13.50;99.90;;;;;;4992745;28;20144;-72
2023/04/30 08:30:50;;;;;;;8.00;4.20;;;14.00;99.90;;;;;;4997832;28;20120;-72
2023/04/30 08:33:16;;;;;;;8.30;3.63;;;14.70;99.90;;;;;;4997390;28;20123;-73
2023/04/30 08:35:41;;;;;;;8.60;4.78;;;15.10;99.90;;;;;;4998028;28;20042;-72
2023/04/30 08:38:07;;;;;;;10.52;5.18;;;15.50;99.90;;;;;;4997575;28;20222;-72
2023/04/30 08:40:35;;;;;;;6.72;3.63;;;16.00;99.90;;;;;;4992768;28;20063;-72
2023/04/30 08:43:07;;;;;;;9.95;4.13;;;16.40;99.90;;;;;;4997287;28;20049;-72
2023/04/30 08:45:35;;;;;;;10.52;4.65;;;16.80;94.60;;;;;;4996971;28;20048;-72
2023/04/30 08:48:03;;;;;;;9.52;4.35;;;16.70;92.90;;;;;;4980308;28;20379;-72
2023/04/30 08:50:30;;;;;;;9.73;4.60;;;16.40;94.10;;;;;;4997293;28;20561;-72
2023/04/30 08:53:00;;;;;;;8.88;4.22;;;16.40;99.90;;;;;;4997307;28;20038;-72
2023/04/30 08:55:26;;;;;;;11.32;4.25;;;16.90;99.90;;;;;;4997498;28;20120;-72
2023/04/30 08:57:51;;;;;;;9.57;4.43;;;17.40;99.90;;;;;;4981147;28;20476;-73
2023/04/30 09:00:17;;;;;;;10.10;4.22;;;17.90;97.20;;;;;;4997552;28;20121;-73
2023/04/30 09:02:44;;;;;;;8.57;4.28;;;18.10;92.00;;;;;;4996084;28;20052;-73
2023/04/30 09:05:14;;;;;;;9.07;4.47;;;18.40;90.50;;;;;;4997301;28;20054;-72
2023/04/30 09:07:41;;;;;;;7.85;3.67;;;18.70;89.70;;;;;;4997196;28;20041;-73
2023/04/30 09:10:21;;;;;;;7.93;3.53;;;19.10;84.90;;;;;;4997227;28;20116;-73
2023/04/30 09:13:07;;;;;;;9.98;3.90;;;19.50;76.70;;;;;;4996750;28;20561;-72
2023/04/30 09:15:35;;;;;;;6.80;3.92;;;19.40;72.50;;;;;;5013365;28;20045;-73
2023/04/30 09:18:16;;;;;;;10.60;3.83;;;18.90;69.60;;;;;;4993949;28;20037;-72
2023/04/30 09:21:03;;;;;;;8.80;4.15;;;18.40;71.20;;;;;;4974442;28;20056;-73
2023/04/30 09:23:29;;;;;;;7.22;3.90;;;18.10;72.40;;;;;;4996692;28;20092;-73
2023/04/30 09:25:55;;;;;;;9.05;4.25;;;18.10;73.60;;;;;;4996845;28;20049;-73
2023/04/30 09:28:24;;;;;;;7.43;4.10;;;18.10;69.70;;;;;;4996802;28;20049;-72
2023/04/30 09:30:50;;;;;;;7.25;4.10;;;17.80;70.30;;;;;;4995665;28;20052;-72
2023/04/30 09:33:16;;;;;;;7.57;4.25;;;17.70;72.60;;;;;;5009217;28;20133;-72
2023/04/30 09:35:42;;;;;;;7.28;3.88;;;17.90;69.80;;;;;;4973645;28;20125;-72
2023/04/30 09:38:25;;;;;;;9.00;3.72;;;17.80;72.40;;;;;;4996304;28;20078;-73
2023/04/30 09:40:50;;;;;;;8.15;3.70;;;18.00;71.20;;;;;;5012187;28;20120;-72
2023/04/30 09:43:16;;;;;;;8.05;4.78;;;17.70;71.30;;;;;;4995456;28;20461;-72
2023/04/30 09:45:51;;;;;;;8.50;4.40;;;17.70;68.50;;;;;;4996404;28;20042;-72
2023/04/30 09:48:21;;;;;;;5.93;4.43;;;17.40;71.20;;;;;;4996486;28;20132;-72
2023/04/30 09:50:48;;;;;;;9.38;4.38;;;17.50;70.90;;;;;;4993504;28;20053;-72
2023/04/30 09:53:13;;;;;;;8.95;5.00;;;17.60;68.70;;;;;;4996156;28;20041;-72
2023/04/30 09:55:43;;;;;;;9.40;4.55;;;17.40;72.80;;;;;;4996683;28;20046;-72
2023/04/30 09:58:10;;;;;;;9.43;4.40;;;17.70;70.00;;;;;;4996268;28;20083;-72
2023/04/30 10:00:37;;;;;;;9.10;4.40;;;17.70;68.30;;;;;;5012424;28;20049;-72
2023/04/30 10:03:08;;;;;;;7.45;3.75;;;17.50;70.00;;;;;;4995081;28;20034;-72
2023/04/30 10:05:46;;;;;;;8.15;3.97;;;17.30;77.20;;;;;;4988327;28;20048;-72
2023/04/30 10:08:27;;;;;;;6.95;3.60;;;17.60;79.40;;;;;;4996091;28;20072;-72
2023/04/30 10:11:01;;;;;;;8.60;4.15;;;18.10;70.20;;;;;;4996116;28;20228;-72
2023/04/30 10:13:44;;;;;;;6.72;3.40;;;18.00;70.50;;;;;;4995805;28;20049;-72
2023/04/30 10:16:39;;;;;;;7.72;4.03;;;17.80;71.10;;;;;;4992893;28;20038;-72
2023/04/30 10:19:10;;;;;;;9.30;4.40;;;17.90;75.40;;;;;;4990896;28;20045;-72
2023/04/30 10:21:41;;;;;;;6.78;3.58;;;18.30;76.00;;;;;;4989081;28;20075;-71
2023/04/30 10:24:09;;;;;;;5.90;4.00;;;18.70;70.70;;;;;;4995676;28;20057;-73
2023/04/30 10:26:35;;;;;;;7.55;3.65;;;18.70;66.90;;;;;;4995817;28;20045;-73
2023/04/30 10:29:04;;;;;;;7.68;4.05;;;18.50;67.90;;;;;;4995604;28;20477;-75
2023/04/30 10:31:30;;;;;;;12.18;4.28;;;18.40;70.30;;;;;;4995824;28;20473;-75
2023/04/30 10:34:34;;;;;;;8.70;3.90;;;18.50;69.00;;;;;;4990935;28;20121;-74
2023/04/30 10:37:12;;;;;;;8.88;3.88;;;18.60;69.90;;;;;;4962908;28;20042;-76
2023/04/30 10:39:38;;;;;;;8.88;3.65;;;18.70;71.60;;;;;;4972611;28;20034;-76
2023/04/30 10:42:05;;;;;;;6.65;3.83;;;19.00;71.20;;;;;;4995291;28;20167;-76
2023/04/30 10:44:40;;;;;;;6.85;3.72;;;19.10;71.40;;;;;;4995054;28;20042;-75
2023/04/30 10:47:07;;;;;;;6.95;3.30;;;19.40;70.40;;;;;;4995707;28;20049;-73
2023/04/30 10:49:33;;;;;;;6.55;2.95;;;19.70;70.80;;;;;;4994136;28;20045;-77
2023/04/30 10:52:02;;;;;;;6.00;3.35;;;20.10;66.40;;;;;;4994978;28;20050;-75
2023/04/30 10:54:35;;;;;;;8.50;3.60;;;20.20;68.00;;;;;;4994930;28;20046;-75
2023/04/30 10:57:13;;;;;;;6.93;3.10;;;20.40;65.50;;;;;;4995090;28;20104;-76
2023/04/30 10:59:43;;;;;;;7.03;4.00;;;20.20;69.40;;;;;;4995242;28;20038;-77
2023/04/30 11:02:12;;;;;;;8.68;4.22;;;20.40;66.00;;;;;;4991642;28;20104;-75
2023/04/30 11:05:07;;;;;;;6.30;3.72;;;20.60;68.40;;;;;;4994642;28;20044;-76
2023/04/30 11:07:33;;;;;;;8.35;3.78;;;20.80;63.60;;;;;;4975028;28;20472;-76
2023/04/30 11:10:00;;;;;;;7.20;3.80;;;20.60;62.60;;;;;;4995303;28;20527;-76
2023/04/30 11:12:29;;;;;;;7.85;4.03;;;20.40;62.30;;;;;;4994502;28;20462;-76
2023/04/30 11:15:06;;;;;;;7.45;3.90;;;19.80;63.60;;;;;;4994712;28;20588;-77
2023/04/30 11:17:32;;;;;;;6.13;3.50;;;19.80;65.70;;;;;;4993160;28;20121;-76
2023/04/30 11:20:00;;;;;;;7.05;3.60;;;20.00;64.30;;;;;;4994001;28;20044;-76
2023/04/30 11:22:34;;;;;;;6.18;3.67;;;20.10;65.90;;;;;;4978435;28;20121;-76
2023/04/30 11:25:03;;;;;;;7.13;3.78;;;20.50;68.30;;;;;;5011048;28;20042;-76
2023/04/30 11:27:32;;;;;;;6.65;3.10;;;20.90;66.20;;;;;;4993905;28;20511;-77
2023/04/30 11:29:58;;;;;;;6.97;3.83;;;21.40;61.20;;;;;;4994515;28;20049;-77
2023/04/30 11:32:30;;;;;;;4.15;2.85;;;21.30;63.90;;;;;;4994298;28;20038;-76
2023/04/30 11:34:56;;;;;;;7.35;3.53;;;21.50;61.60;;;;;;4993204;28;20038;-76
2023/04/30 11:37:31;;;;;;;6.68;3.45;;;21.00;59.90;;;;;;5002743;23;20095;-76
2023/04/30 11:40:00;;;;;;;7.43;4.18;;;21.00;63.90;;;;;;5014086;28;20096;-75
2023/04/30 11:42:25;;;;;;;4.68;2.90;;;21.20;61.40;;;;;;5014200;28;20077;-74
2023/04/30 11:44:51;;;;;;;5.82;3.30;;;21.10;60.70;;;;;;5014007;28;20135;-75
2023/04/30 11:47:16;;;;;;;5.97;3.40;;;20.90;63.00;;;;;;5014019;28;20049;-75
2023/04/30 11:49:42;;;;;;;9.07;5.47;;;21.10;66.10;;;;;;5013201;28;20405;-75
2023/04/30 11:52:08;;;;;;;5.72;2.83;;;21.50;65.50;;;;;;5007407;28;20040;-76
2023/04/30 11:54:37;;;;;;;4.95;2.90;;;22.10;63.40;;;;;;5017093;28;20033;-76
2023/04/30 11:57:04;;;;;;;5.55;3.20;;;22.50;60.40;;;;;;5014034;28;20038;-76
2023/04/30 11:59:31;;;;;;;5.70;3.00;;;22.50;62.50;;;;;;5014391;28;20041;-77
2023/04/30 12:01:57;;;;;;;6.03;3.38;;;22.80;61.80;;;;;;5016064;28;20037;-77
2023/04/30 12:04:23;;;;;;;5.30;2.60;;;22.90;60.50;;;;;;5017329;28;20037;-78
2023/04/30 12:06:49;;;;;;;5.20;3.10;;;23.10;59.80;;;;;;5002052;28;20477;-78
2023/04/30 12:09:14;;;;;;;6.30;3.30;;;23.30;59.40;;;;;;5017107;28;20108;-77
2023/04/30 12:11:40;;;;;;;5.43;3.10;;;23.40;59.20;;;;;;5004964;28;20049;-77
2023/04/30 12:14:10;;;;;;;6.22;3.05;;;23.70;56.20;;;;;;4997939;28;20495;-77
2023/04/30 12:16:41;;;;;;;6.75;4.18;;;23.50;59.20;;;;;;5017705;28;20508;-77
2023/04/30 12:19:06;;;;;;;6.82;3.80;;;23.60;58.80;;;;;;5001134;28;20046;-77
2023/04/30 12:21:33;;;;;;;8.25;3.38;;;23.70;58.50;;;;;;5018253;28;20091;-76
2023/04/30 12:23:59;;;;;;;5.93;3.40;;;24.20;55.50;;;;;;5000931;28;20041;-76
2023/04/30 12:26:36;;;;;;;5.32;3.53;;;23.90;53.50;;;;;;5017793;28;20037;-76
2023/04/30 12:29:09;;;;;;;7.30;3.20;;;23.40;58.20;;;;;;5017575;28;20048;-77
2023/04/30 12:31:39;;;;;;;5.72;2.97;;;23.50;60.00;;;;;;5016674;28;20045;-77
2023/04/30 12:34:10;;;;;;;5.25;3.20;;;23.90;58.40;;;;;;5017006;28;20029;-77
2023/04/30 12:36:36;;;;;;;7.78;2.92;;;24.00;56.80;;;;;;4998190;28;20050;-77
2023/04/30 12:39:12;;;;;;;6.18;3.03;;;24.00;54.60;;;;;;5005653;28;20481;-77
2023/04/30 12:41:43;;;;;;;6.85;3.65;;;23.40;54.40;;;;;;5010284;28;20083;-76
2023/04/30 12:44:16;;;;;;;7.47;3.05;;;22.80;56.00;;;;;;5000986;28;20047;-76
2023/04/30 12:46:42;;;;;;;5.25;3.38;;;22.50;59.10;;;;;;5000396;28;20068;-76